Time;durP1;ratioP1;P1;durP2;ratioP2;P2;SDS_P1;SDS_P2;PMS_P1;PMS_P2;Temp;Humidity;BMP_temperature;BMP_pressure;BME280_temperature;BME280_humidity;BME280_pressure;Samples;Min_cycle;Max_cycle;Signal;HPM_P1;HPM_P2
2022/05/09 00:01:41;;;;;;;3.13;1.70;;;14.80;1.00;;;;;;5115003;28;20457;-59
2022/05/09 00:04:09;;;;;;;2.93;1.83;;;14.80;1.00;;;;;;5118370;28;20492;-59
2022/05/09 00:06:36;;;;;;;2.17;1.63;;;14.80;99.90;;;;;;5118003;28;20468;-59
2022/05/09 00:09:04;;;;;;;2.23;1.77;;;14.80;99.90;;;;;;5119317;28;20460;-59
2022/05/09 00:11:31;;;;;;;2.60;1.50;;;14.80;99.90;;;;;;5116520;28;20460;-59
2022/05/09 00:13:58;;;;;;;2.80;2.50;;;14.80;99.90;;;;;;5114885;28;20468;-59
2022/05/09 00:16:25;;;;;;;2.40;1.60;;;14.70;1.00;;;;;;5115850;28;20453;-60
2022/05/09 00:18:52;;;;;;;2.13;1.40;;;14.70;1.00;;;;;;5116899;28;20470;-58
2022/05/09 00:21:20;;;;;;;3.00;2.70;;;14.60;1.00;;;;;;5116357;28;20453;-59
2022/05/09 00:23:47;;;;;;;2.93;1.47;;;14.60;1.00;;;;;;5115535;28;20464;-58
2022/05/09 00:26:14;;;;;;;2.10;1.50;;;14.60;1.00;;;;;;5115502;28;20457;-59
2022/05/09 00:28:41;;;;;;;3.53;2.10;;;14.60;1.00;;;;;;5114656;28;20500;-58
2022/05/09 00:31:07;;;;;;;1.80;1.40;;;14.60;1.00;;;;;;5116951;28;20512;-59
2022/05/09 00:33:34;;;;;;;2.43;1.80;;;14.60;1.00;;;;;;5115789;28;20460;-59
2022/05/09 00:36:01;;;;;;;2.30;1.50;;;14.60;1.00;;;;;;5117049;28;20791;-59
2022/05/09 00:38:29;;;;;;;2.67;1.50;;;14.60;1.00;;;;;;5117391;28;20563;-59
2022/05/09 00:43:43;;;;;;;3.53;2.00;;;14.50;1.00;;;;;;5116163;28;20432;-60
2022/05/09 00:46:10;;;;;;;2.50;1.97;;;14.50;1.00;;;;;;5117012;28;20456;-59
2022/05/09 00:48:37;;;;;;;2.53;1.63;;;14.50;1.00;;;;;;5118166;28;20452;-59
2022/05/09 00:51:09;;;;;;;2.47;1.83;;;14.40;1.00;;;;;;5117296;28;20571;-60
2022/05/09 00:53:37;;;;;;;2.53;1.63;;;14.40;1.00;;;;;;5117408;28;20453;-60
2022/05/09 00:56:08;;;;;;;3.13;1.73;;;14.30;1.00;;;;;;5116444;28;20754;-60
2022/05/09 00:58:39;;;;;;;2.50;1.70;;;14.20;1.00;;;;;;5136908;27;20521;-59
2022/05/09 01:03:58;;;;;;;2.23;1.90;;;14.00;1.00;;;;;;5090951;27;20741;-60
2022/05/09 01:06:27;;;;;;;2.00;1.60;;;13.90;1.00;;;;;;5138816;27;20988;-60
2022/05/09 01:08:56;;;;;;;2.37;1.80;;;13.90;1.00;;;;;;5135995;27;20459;-59
2022/05/09 01:11:25;;;;;;;2.23;1.63;;;13.80;1.00;;;;;;5133614;27;20536;-59
2022/05/09 01:13:58;;;;;;;1.70;1.30;;;13.80;1.00;;;;;;5129143;27;20459;-60
2022/05/09 01:16:26;;;;;;;2.57;1.33;;;13.80;1.00;;;;;;5137842;27;20489;-60
2022/05/09 01:18:53;;;;;;;2.83;2.00;;;13.80;1.00;;;;;;5135733;27;20458;-59
2022/05/09 01:21:33;;;;;;;2.10;1.30;;;13.80;1.00;;;;;;5138542;27;20444;-59
2022/05/09 01:24:00;;;;;;;2.87;1.70;;;13.80;1.00;;;;;;5137296;27;20459;-60
2022/05/09 01:26:27;;;;;;;2.83;2.00;;;13.90;1.00;;;;;;5136315;27;20984;-59
2022/05/09 01:29:01;;;;;;;3.30;2.27;;;13.90;1.00;;;;;;5139303;27;20451;-60
2022/05/09 01:31:27;;;;;;;3.10;2.00;;;14.00;1.00;;;;;;5135731;27;20486;-60
2022/05/09 01:33:56;;;;;;;2.60;1.50;;;14.10;1.00;;;;;;5137856;27;20466;-60
2022/05/09 01:36:27;;;;;;;5.30;2.63;;;14.20;1.00;;;;;;5135834;27;20447;-59
2022/05/09 01:38:59;;;;;;;3.23;1.90;;;14.20;1.00;;;;;;5136296;27;20516;-59
2022/05/09 01:41:26;;;;;;;3.83;1.80;;;14.20;1.00;;;;;;5133080;27;20459;-59
2022/05/09 01:43:55;;;;;;;3.77;2.30;;;14.20;1.00;;;;;;5136770;27;20444;-60
2022/05/09 01:46:24;;;;;;;2.57;1.80;;;14.20;1.00;;;;;;5137764;27;20497;-59
2022/05/09 01:51:38;;;;;;;3.67;2.10;;;14.20;1.00;;;;;;5136769;27;20528;-59
2022/05/09 01:54:07;;;;;;;2.07;1.50;;;14.10;1.00;;;;;;5137067;27;20460;-60
2022/05/09 01:56:36;;;;;;;2.17;1.50;;;14.00;1.00;;;;;;5137838;27;20486;-60
2022/05/09 01:59:06;;;;;;;2.43;1.60;;;13.90;1.00;;;;;;5135301;27;21001;-60
2022/05/09 02:01:38;;;;;;;7.30;2.10;;;13.90;1.00;;;;;;5137783;27;20452;-60
2022/05/09 02:04:05;;;;;;;2.73;2.00;;;13.80;1.00;;;;;;5136020;27;20991;-59
2022/05/09 02:06:33;;;;;;;2.47;1.63;;;13.70;1.00;;;;;;5136509;27;20550;-59
2022/05/09 02:09:00;;;;;;;2.90;2.10;;;13.70;1.00;;;;;;5134932;27;20711;-59
2022/05/09 02:11:28;;;;;;;3.10;2.00;;;13.70;1.00;;;;;;5131027;27;20467;-60
2022/05/09 02:14:08;;;;;;;2.03;1.50;;;13.70;1.00;;;;;;5137577;27;20747;-59
2022/05/09 02:16:35;;;;;;;3.83;1.80;;;13.60;1.00;;;;;;5130228;27;20460;-60
2022/05/09 02:19:04;;;;;;;2.30;2.10;;;13.60;1.00;;;;;;5136557;27;20517;-59
2022/05/09 02:21:31;;;;;;;4.80;1.80;;;13.60;1.00;;;;;;5136255;27;20562;-60
2022/05/09 02:23:58;;;;;;;2.20;1.80;;;13.60;1.00;;;;;;5136953;27;20809;-59
2022/05/09 02:26:25;;;;;;;5.03;1.80;;;13.60;1.00;;;;;;5132633;27;20464;-60
2022/05/09 02:28:53;;;;;;;3.23;1.90;;;13.60;1.00;;;;;;5137182;27;20443;-60
2022/05/09 02:31:21;;;;;;;2.83;2.00;;;13.50;1.00;;;;;;5137135;27;20519;-60
2022/05/09 02:33:48;;;;;;;2.30;1.80;;;13.50;1.00;;;;;;5137081;27;20468;-59
2022/05/09 02:36:15;;;;;;;2.70;1.87;;;13.40;1.00;;;;;;5135302;27;20464;-60
2022/05/09 02:38:42;;;;;;;3.47;2.57;;;13.30;1.00;;;;;;5136692;27;20463;-59
2022/05/09 02:41:09;;;;;;;3.90;1.90;;;13.30;1.00;;;;;;5135809;27;20887;-60
2022/05/09 02:43:35;;;;;;;2.93;1.80;;;13.30;1.00;;;;;;5136583;27;20737;-59
2022/05/09 02:46:04;;;;;;;2.17;1.90;;;13.30;1.00;;;;;;5135975;27;20455;-60
2022/05/09 02:48:31;;;;;;;3.27;1.73;;;13.30;1.00;;;;;;5135942;27;20464;-59
2022/05/09 02:50:58;;;;;;;2.40;1.90;;;13.20;1.00;;;;;;5136528;27;20490;-59
2022/05/09 02:53:25;;;;;;;2.80;2.23;;;13.20;1.00;;;;;;5135460;27;20873;-60
2022/05/09 02:55:52;;;;;;;3.70;2.53;;;13.20;1.00;;;;;;5135238;27;20454;-60
2022/05/09 02:58:19;;;;;;;4.40;2.40;;;13.20;1.00;;;;;;5116222;28;20456;-60
2022/05/09 03:00:46;;;;;;;3.90;2.10;;;13.10;1.00;;;;;;5116608;28;20540;-59
2022/05/09 03:09:21;;;;;;;2.83;2.00;;;13.00;1.00;;;;;;5115722;28;20416;-58
2022/05/09 03:11:48;;;;;;;3.07;2.03;;;13.00;1.00;;;;;;5116273;28;20480;-58
2022/05/09 03:14:14;;;;;;;4.47;2.47;;;13.00;1.00;;;;;;5113453;28;20471;-58
2022/05/09 03:16:41;;;;;;;2.57;2.03;;;13.00;1.00;;;;;;5115343;28;20453;-58
2022/05/09 03:19:09;;;;;;;3.00;1.70;;;13.00;1.00;;;;;;5116258;28;20452;-58
2022/05/09 03:21:36;;;;;;;3.93;1.80;;;13.00;1.00;;;;;;5115046;28;20444;-58
2022/05/09 03:24:03;;;;;;;2.60;1.77;;;13.00;1.00;;;;;;5114903;28;20487;-58
2022/05/09 03:26:31;;;;;;;4.13;2.03;;;13.00;1.00;;;;;;5114735;28;20444;-58
2022/05/09 03:28:58;;;;;;;3.47;2.47;;;13.00;1.00;;;;;;5115336;28;20460;-58
2022/05/09 03:31:25;;;;;;;4.20;2.57;;;13.10;1.00;;;;;;5114444;28;20491;-58
2022/05/09 03:33:51;;;;;;;2.97;2.10;;;13.10;1.00;;;;;;5114791;28;20461;-58
2022/05/09 03:36:20;;;;;;;2.00;1.50;;;13.10;1.00;;;;;;5116003;28;20468;-58
2022/05/09 03:38:46;;;;;;;3.13;1.90;;;13.10;1.00;;;;;;5116466;28;20472;-58
2022/05/09 03:41:13;;;;;;;4.10;2.97;;;13.10;1.00;;;;;;5112455;28;20478;-58
2022/05/09 03:43:40;;;;;;;2.60;1.93;;;13.10;1.00;;;;;;5114259;28;20463;-59
2022/05/09 03:46:07;;;;;;;3.40;1.90;;;13.10;1.00;;;;;;5116612;28;20448;-59
2022/05/09 03:48:34;;;;;;;4.37;3.00;;;13.10;1.00;;;;;;5115300;28;20468;-59
2022/05/09 03:51:01;;;;;;;3.97;2.43;;;13.10;1.00;;;;;;5114926;28;20491;-58
2022/05/09 03:53:30;;;;;;;4.10;2.50;;;13.00;1.00;;;;;;5114245;28;20851;-58
2022/05/09 03:55:57;;;;;;;2.63;2.20;;;13.00;1.00;;;;;;5115335;28;20514;-58
2022/05/09 03:58:25;;;;;;;3.50;2.20;;;13.00;1.00;;;;;;5114675;28;20465;-59
2022/05/09 04:00:52;;;;;;;3.90;2.47;;;13.00;1.00;;;;;;5114942;28;20457;-58
2022/05/09 04:03:20;;;;;;;5.87;2.70;;;13.00;1.00;;;;;;5115931;28;20475;-59
2022/05/09 04:05:47;;;;;;;7.30;2.47;;;13.00;1.00;;;;;;5115073;28;20761;-59
2022/05/09 04:08:17;;;;;;;2.63;1.87;;;13.00;1.00;;;;;;5114404;28;20899;-59
2022/05/09 04:10:46;;;;;;;3.67;2.67;;;13.00;1.00;;;;;;5110553;28;20488;-60
2022/05/09 04:13:13;;;;;;;3.40;2.53;;;13.00;1.00;;;;;;5113823;28;20532;-60
2022/05/09 04:18:27;;;;;;;2.67;1.90;;;13.00;1.00;;;;;;5108342;28;20890;-60
2022/05/09 04:20:54;;;;;;;3.00;2.20;;;13.00;1.00;;;;;;5108135;28;20456;-60
2022/05/09 04:23:22;;;;;;;2.97;2.30;;;13.00;1.00;;;;;;5113107;28;20460;-60
2022/05/09 04:25:51;;;;;;;3.73;2.30;;;13.00;1.00;;;;;;5113116;28;20465;-59
2022/05/09 04:28:19;;;;;;;4.23;2.83;;;13.00;1.00;;;;;;5113544;28;20776;-59
2022/05/09 04:30:46;;;;;;;3.13;2.27;;;13.00;1.00;;;;;;5117520;28;20480;-59
2022/05/09 04:33:14;;;;;;;2.27;1.90;;;13.10;1.00;;;;;;5116125;28;20500;-61
2022/05/09 04:35:42;;;;;;;3.13;2.23;;;13.10;1.00;;;;;;5117627;28;20464;-60
2022/05/09 04:38:14;;;;;;;4.17;2.90;;;13.10;1.00;;;;;;5117439;28;20567;-60
2022/05/09 04:40:41;;;;;;;3.53;2.50;;;13.10;1.00;;;;;;5112753;28;20906;-59
2022/05/09 04:43:09;;;;;;;3.37;3.00;;;13.20;1.00;;;;;;5116696;28;20469;-60
2022/05/09 04:45:36;;;;;;;3.93;2.73;;;13.20;1.00;;;;;;5116391;28;20460;-60
2022/05/09 04:48:04;;;;;;;2.93;1.90;;;13.20;1.00;;;;;;5117347;28;20464;-60
2022/05/09 04:50:34;;;;;;;3.47;2.37;;;13.20;1.00;;;;;;5118659;28;20448;-60
2022/05/09 04:53:01;;;;;;;4.93;2.67;;;13.20;1.00;;;;;;5110445;28;20470;-60
2022/05/09 04:55:28;;;;;;;3.27;2.70;;;13.10;1.00;;;;;;5112107;28;20463;-61
2022/05/09 04:57:56;;;;;;;3.63;3.33;;;13.10;1.00;;;;;;5135229;27;20475;-60
2022/05/09 05:00:26;;;;;;;3.13;2.43;;;13.30;1.00;;;;;;5138439;27;20467;-59
2022/05/09 05:02:53;;;;;;;2.53;2.33;;;13.40;1.00;;;;;;5134119;27;21067;-59
2022/05/09 05:05:20;;;;;;;3.63;2.50;;;13.40;1.00;;;;;;5135079;27;20460;-59
2022/05/09 05:07:48;;;;;;;3.90;3.43;;;13.40;1.00;;;;;;5136985;27;20452;-59
2022/05/09 05:10:15;;;;;;;3.87;2.77;;;13.50;1.00;;;;;;5136786;27;20510;-59
2022/05/09 05:12:42;;;;;;;2.87;2.40;;;13.50;1.00;;;;;;5134464;27;21133;-59
2022/05/09 05:15:10;;;;;;;6.17;2.30;;;13.70;1.00;;;;;;5135192;27;20478;-60
2022/05/09 05:17:38;;;;;;;4.93;2.40;;;13.80;1.00;;;;;;5136043;27;20875;-60
2022/05/09 05:20:09;;;;;;;4.33;2.87;;;14.00;1.00;;;;;;5133695;27;20459;-61
2022/05/09 05:25:20;;;;;;;2.90;2.23;;;14.00;1.00;;;;;;5130334;27;20567;-60
2022/05/09 05:27:48;;;;;;;6.63;2.63;;;14.10;1.00;;;;;;5135222;27;20442;-60
2022/05/09 05:30:16;;;;;;;3.37;2.67;;;14.20;1.00;;;;;;5128738;27;20455;-60
2022/05/09 05:32:46;;;;;;;3.10;2.23;;;14.30;1.00;;;;;;5131959;27;20479;-60
2022/05/09 05:35:15;;;;;;;3.30;2.63;;;14.40;1.00;;;;;;5132449;27;20970;-59
2022/05/09 05:37:42;;;;;;;3.70;2.67;;;14.50;1.00;;;;;;5134833;27;20468;-59
2022/05/09 05:40:10;;;;;;;4.80;2.63;;;14.60;1.00;;;;;;5131113;27;20470;-60
2022/05/09 05:42:39;;;;;;;3.00;2.70;;;14.50;1.00;;;;;;5121248;27;20989;-60
2022/05/09 05:45:08;;;;;;;4.60;3.63;;;14.60;1.00;;;;;;5125315;27;20451;-60
2022/05/09 05:47:34;;;;;;;5.27;2.43;;;14.40;1.00;;;;;;5128945;27;20776;-60
2022/05/09 05:50:03;;;;;;;5.30;4.00;;;14.40;1.00;;;;;;5136275;27;21148;-60
2022/05/09 05:52:30;;;;;;;6.40;3.80;;;14.30;1.00;;;;;;5127919;27;20476;-60
2022/05/09 05:54:57;;;;;;;3.33;3.03;;;14.30;1.00;;;;;;5134732;27;20890;-62
2022/05/09 05:57:26;;;;;;;4.33;3.57;;;14.30;1.00;;;;;;5133052;27;20813;-62
2022/05/09 05:59:54;;;;;;;4.73;4.23;;;14.30;1.00;;;;;;5130798;27;20460;-62
2022/05/09 06:02:21;;;;;;;4.10;3.23;;;14.30;1.00;;;;;;5128873;27;20466;-60
2022/05/09 06:04:48;;;;;;;8.20;3.50;;;14.40;1.00;;;;;;5133386;27;20448;-60
2022/05/09 06:07:19;;;;;;;8.70;5.70;;;14.40;1.00;;;;;;5134282;27;20456;-61
2022/05/09 06:09:47;;;;;;;4.27;2.77;;;14.50;1.00;;;;;;5133415;27;20456;-61
2022/05/09 06:12:16;;;;;;;4.87;3.37;;;14.40;1.00;;;;;;5125203;27;20926;-60
2022/05/09 06:14:43;;;;;;;4.40;2.20;;;14.40;1.00;;;;;;5134312;27;20464;-61
2022/05/09 06:17:11;;;;;;;3.60;3.30;;;14.70;1.00;;;;;;5132005;27;20460;-60
2022/05/09 06:19:38;;;;;;;4.70;3.30;;;14.80;1.00;;;;;;5131724;27;20479;-61
2022/05/09 06:22:05;;;;;;;3.20;2.87;;;15.00;1.00;;;;;;5132246;27;20962;-60
2022/05/09 06:24:34;;;;;;;4.55;4.05;;;15.10;1.00;;;;;;5130900;27;20449;-60
2022/05/09 06:27:01;;;;;;;4.93;4.53;;;15.10;1.00;;;;;;5129284;27;20201;-60
2022/05/09 06:29:27;;;;;;;4.10;3.70;;;15.10;1.00;;;;;;5135038;27;20755;-59
2022/05/09 06:31:54;;;;;;;4.60;3.10;;;15.10;1.00;;;;;;5132143;27;20480;-60
2022/05/09 06:34:21;;;;;;;4.90;3.07;;;15.30;1.00;;;;;;5129647;27;20913;-60
2022/05/09 06:36:48;;;;;;;3.90;2.50;;;15.40;99.90;;;;;;5129405;27;20558;-60
2022/05/09 06:39:15;;;;;;;4.20;2.73;;;15.40;99.90;;;;;;5130561;27;20470;-61
2022/05/09 06:41:43;;;;;;;5.30;3.10;;;15.40;99.90;;;;;;5125929;27;20448;-61
2022/05/09 06:44:10;;;;;;;4.63;3.10;;;15.50;99.90;;;;;;5132442;27;21187;-62
2022/05/09 06:46:37;;;;;;;4.17;3.87;;;15.50;99.90;;;;;;5131003;27;20977;-61
2022/05/09 06:49:04;;;;;;;4.33;3.13;;;15.60;99.90;;;;;;5133412;27;20441;-60
2022/05/09 06:51:31;;;;;;;2.80;2.13;;;15.60;99.90;;;;;;5129697;27;20480;-61
2022/05/09 06:53:58;;;;;;;6.77;2.67;;;15.70;1.00;;;;;;5129528;27;20455;-60
2022/05/09 06:56:24;;;;;;;3.17;2.13;;;15.80;1.00;;;;;;5130854;27;20483;-60
2022/05/09 06:58:53;;;;;;;3.33;2.27;;;15.90;1.00;;;;;;5126952;27;20856;-60
2022/05/09 07:01:20;;;;;;;2.63;1.50;;;16.00;1.00;;;;;;5133402;27;20448;-61
2022/05/09 07:03:48;;;;;;;2.67;2.37;;;16.10;99.90;;;;;;5131304;27;20462;-62
2022/05/09 07:06:16;;;;;;;3.37;2.77;;;16.20;1.00;;;;;;5131515;27;20753;-61
2022/05/09 07:08:43;;;;;;;3.50;2.93;;;16.30;1.00;;;;;;5126756;27;20866;-62
2022/05/09 07:11:12;;;;;;;4.67;3.73;;;16.40;1.00;;;;;;5133595;27;20474;-61
2022/05/09 07:13:39;;;;;;;8.10;2.73;;;16.40;1.00;;;;;;5131793;27;20856;-62
2022/05/09 07:19:31;;;;;;;5.53;3.80;;;16.40;1.00;;;;;;5128919;27;20443;-60
2022/05/09 07:21:58;;;;;;;2.90;2.57;;;16.40;99.90;;;;;;5132397;27;20524;-61
2022/05/09 07:24:25;;;;;;;2.50;1.87;;;16.40;99.90;;;;;;5128095;27;20786;-60
2022/05/09 07:26:51;;;;;;;4.30;2.73;;;16.50;1.00;;;;;;5129932;27;20455;-61
2022/05/09 07:29:18;;;;;;;3.30;3.10;;;16.60;99.90;;;;;;5128601;27;20448;-57
2022/05/09 07:31:45;;;;;;;3.80;2.60;;;16.70;47.10;;;;;;5132289;27;20997;-62
2022/05/09 07:34:12;;;;;;;2.37;2.00;;;16.80;1.00;;;;;;5130640;28;20463;-63
2022/05/09 07:36:41;;;;;;;2.60;1.73;;;16.90;1.00;;;;;;5132794;28;20456;-63
2022/05/09 07:39:09;;;;;;;2.80;2.23;;;16.90;1.00;;;;;;5132310;28;20467;-63
2022/05/09 07:41:36;;;;;;;5.73;4.60;;;16.90;1.00;;;;;;5132554;28;20446;-63
2022/05/09 07:44:03;;;;;;;4.60;3.13;;;16.90;1.00;;;;;;5131322;28;20456;-62
2022/05/09 07:46:30;;;;;;;3.53;2.70;;;17.00;1.00;;;;;;5134022;27;20849;-62
2022/05/09 07:48:57;;;;;;;3.07;2.77;;;17.10;1.00;;;;;;5131819;27;20834;-62
2022/05/09 07:51:24;;;;;;;3.00;2.60;;;17.20;1.00;;;;;;5134147;28;20520;-63
2022/05/09 07:53:52;;;;;;;4.67;2.77;;;17.30;99.90;;;;;;5134201;28;20460;-62
2022/05/09 07:56:19;;;;;;;3.20;2.10;;;17.40;99.90;;;;;;5132904;28;20468;-63
2022/05/09 07:58:46;;;;;;;3.80;2.77;;;17.30;99.90;;;;;;5123423;28;20916;-62
2022/05/09 08:01:13;;;;;;;2.77;2.40;;;17.40;99.90;;;;;;5130619;28;20458;-63
2022/05/09 08:03:39;;;;;;;3.57;2.37;;;17.40;99.90;;;;;;5128618;27;21096;-63
2022/05/09 08:06:07;;;;;;;4.30;3.38;;;17.50;99.90;;;;;;5135873;27;20552;-62
2022/05/09 08:08:36;;;;;;;4.67;2.40;;;17.60;93.00;;;;;;5131432;27;20258;-62
2022/05/09 08:11:05;;;;;;;2.00;1.70;;;17.70;47.90;;;;;;5118648;27;20467;-63
2022/05/09 08:13:34;;;;;;;4.30;2.40;;;17.90;1.00;;;;;;5133810;27;21111;-63
2022/05/09 08:16:03;;;;;;;4.20;3.80;;;17.90;1.00;;;;;;5129906;27;20456;-64
2022/05/09 08:18:31;;;;;;;3.43;2.80;;;17.90;1.00;;;;;;5136296;27;20205;-65
2022/05/09 08:20:59;;;;;;;3.40;3.10;;;17.90;1.00;;;;;;5130897;27;20453;-65
2022/05/09 08:23:28;;;;;;;2.57;2.27;;;18.10;1.00;;;;;;5123766;27;20501;-65
2022/05/09 08:25:56;;;;;;;2.67;2.47;;;18.30;1.00;;;;;;5125971;27;20456;-64
2022/05/09 08:28:25;;;;;;;3.50;1.80;;;18.40;99.90;;;;;;5127390;27;20467;-64
2022/05/09 08:30:52;;;;;;;4.13;2.67;;;18.40;99.90;;;;;;5132311;27;20464;-64
2022/05/09 08:33:22;;;;;;;3.50;2.93;;;18.60;99.90;;;;;;5136850;27;20482;-65
2022/05/09 08:35:51;;;;;;;2.47;2.23;;;18.60;99.90;;;;;;5133765;27;20528;-65
2022/05/09 08:38:19;;;;;;;3.30;2.17;;;18.80;99.90;;;;;;5133452;27;20742;-65
2022/05/09 08:40:57;;;;;;;2.27;1.93;;;18.90;99.90;;;;;;5126020;27;20459;-64
2022/05/09 08:43:40;;;;;;;3.00;2.70;;;18.90;99.90;;;;;;5132938;27;20434;-63
2022/05/09 08:46:14;;;;;;;2.67;2.20;;;18.90;99.90;;;;;;5135626;27;20492;-62
2022/05/09 08:49:10;;;;;;;1.87;1.70;;;18.80;99.90;;;;;;5122395;27;20448;-64
2022/05/09 08:51:48;;;;;;;2.43;1.67;;;19.00;99.90;;;;;;5115294;27;20460;-67
2022/05/09 08:54:22;;;;;;;4.10;3.23;;;19.10;99.90;;;;;;5122870;27;20449;-65
2022/05/09 08:56:52;;;;;;;2.40;2.20;;;19.30;99.90;;;;;;5122477;27;20479;-67
2022/05/09 08:59:27;;;;;;;3.23;2.40;;;19.40;42.40;;;;;;5124070;27;20453;-66
2022/05/09 09:02:03;;;;;;;2.17;1.97;;;19.30;67.80;;;;;;5121523;27;20914;-67
2022/05/09 09:04:32;;;;;;;3.63;1.50;;;19.40;74.90;;;;;;5123071;27;20537;-65
2022/05/09 09:07:12;;;;;;;2.13;1.57;;;19.60;57.00;;;;;;5126087;27;21056;-66
2022/05/09 09:09:55;;;;;;;2.03;1.80;;;19.80;1.00;;;;;;5129033;27;20452;-66
2022/05/09 09:12:29;;;;;;;2.90;2.70;;;19.90;1.00;;;;;;5119938;27;20469;-67
2022/05/09 09:15:06;;;;;;;2.07;1.57;;;20.00;1.00;;;;;;5118538;27;20454;-66
2022/05/09 09:17:53;;;;;;;1.60;1.43;;;20.20;1.00;;;;;;5128918;27;20448;-65
2022/05/09 09:20:26;;;;;;;2.40;2.17;;;20.30;1.00;;;;;;5127316;27;20439;-65
2022/05/09 09:23:15;;;;;;;2.10;1.90;;;20.40;1.00;;;;;;5126461;27;20460;-65
2022/05/09 09:25:57;;;;;;;3.90;1.50;;;20.50;1.00;;;;;;5119989;27;20470;-66
2022/05/09 09:28:29;;;;;;;1.60;1.30;;;20.50;1.00;;;;;;5128026;27;20437;-65
2022/05/09 09:30:58;;;;;;;2.03;1.73;;;20.60;1.00;;;;;;5116602;27;20451;-64
2022/05/09 09:33:25;;;;;;;2.63;1.70;;;20.90;1.00;;;;;;5131078;27;20479;-65
2022/05/09 09:35:57;;;;;;;2.23;1.70;;;21.10;1.00;;;;;;5132489;27;20471;-67
2022/05/09 09:38:40;;;;;;;2.43;1.97;;;21.20;1.00;;;;;;5123868;27;20459;-64
2022/05/09 09:41:18;;;;;;;2.50;2.20;;;21.20;1.00;;;;;;5132430;27;20464;-64
2022/05/09 09:43:48;;;;;;;2.27;2.07;;;21.30;1.00;;;;;;5133045;27;20494;-64
2022/05/09 09:46:16;;;;;;;2.57;2.00;;;21.20;1.00;;;;;;5130186;27;20456;-65
2022/05/09 09:48:43;;;;;;;2.77;1.60;;;21.40;1.00;;;;;;5126382;27;20453;-66
2022/05/09 09:51:12;;;;;;;1.83;1.53;;;21.30;1.00;;;;;;5127303;27;20996;-66
2022/05/09 09:53:41;;;;;;;2.50;1.67;;;21.20;1.00;;;;;;5133335;27;20480;-66
2022/05/09 09:56:25;;;;;;;1.90;1.70;;;21.40;1.00;;;;;;5134614;27;20486;-68
2022/05/09 09:58:56;;;;;;;1.80;1.40;;;21.70;1.00;;;;;;5131834;27;20562;-68
2022/05/09 10:01:26;;;;;;;4.03;3.83;;;22.10;1.00;;;;;;5135658;27;20475;-68
2022/05/09 10:04:06;;;;;;;3.77;2.03;;;22.30;1.00;;;;;;5122775;27;20861;-67
2022/05/09 10:06:34;;;;;;;2.10;1.70;;;22.40;1.00;;;;;;5115569;28;20441;-67
2022/05/09 10:09:06;;;;;;;2.40;1.50;;;22.40;1.00;;;;;;5135078;27;20456;-66
2022/05/09 10:11:34;;;;;;;2.30;1.83;;;22.40;1.00;;;;;;5135792;27;20915;-67
2022/05/09 10:14:02;;;;;;;2.23;2.03;;;22.70;1.00;;;;;;5127323;27;20960;-66
2022/05/09 10:16:33;;;;;;;1.83;1.23;;;22.20;1.00;;;;;;5123380;27;20459;-66
2022/05/09 10:19:01;;;;;;;2.10;1.47;;;22.00;1.00;;;;;;5134138;27;20463;-66
2022/05/09 10:27:26;;;;;;;2.30;1.73;;;21.90;1.00;;;;;;5118541;27;20423;-66
2022/05/09 10:29:56;;;;;;;2.53;1.77;;;22.10;1.00;;;;;;5133591;27;20728;-66
2022/05/09 10:32:27;;;;;;;3.10;1.83;;;22.10;1.00;;;;;;5131805;27;21120;-67
2022/05/09 10:34:59;;;;;;;1.70;1.47;;;22.00;1.00;;;;;;5117686;27;20548;-64
2022/05/09 10:37:30;;;;;;;1.50;1.40;;;22.00;1.00;;;;;;5119504;27;20459;-65
2022/05/09 10:40:08;;;;;;;1.80;1.47;;;22.20;1.00;;;;;;5131919;27;20447;-67
2022/05/09 10:42:42;;;;;;;2.50;1.80;;;22.80;1.00;;;;;;5133313;27;20460;-68
2022/05/09 10:45:14;;;;;;;8.30;6.57;;;23.10;1.00;;;;;;5132017;27;20456;-66
2022/05/09 10:47:49;;;;;;;8.07;6.10;;;23.20;1.00;;;;;;5132834;27;20447;-68
2022/05/09 10:50:21;;;;;;;2.10;1.40;;;23.40;1.00;;;;;;5117558;27;20459;-68
2022/05/09 10:53:03;;;;;;;1.80;1.30;;;23.90;1.00;;;;;;5128728;27;21126;-66
2022/05/09 10:55:36;;;;;;;2.60;1.40;;;24.30;1.00;;;;;;5131945;27;20467;-66
2022/05/09 10:58:07;;;;;;;1.50;1.20;;;24.80;1.00;;;;;;5132952;27;20481;-67
2022/05/09 11:00:39;;;;;;;2.00;1.90;;;25.10;1.00;;;;;;5132947;27;20466;-64
2022/05/09 11:03:17;;;;;;;2.47;1.87;;;25.50;1.00;;;;;;5129376;27;20780;-67
2022/05/09 11:06:07;;;;;;;1.53;1.40;;;25.50;1.00;;;;;;5112948;28;20445;-65
2022/05/09 11:08:44;;;;;;;1.37;1.20;;;25.40;1.00;;;;;;5112711;28;20444;-66
2022/05/09 11:11:20;;;;;;;1.60;1.17;;;25.40;1.00;;;;;;5113678;28;20456;-66
2022/05/09 11:14:11;;;;;;;1.77;1.10;;;25.40;1.00;;;;;;5133885;27;20590;-67
2022/05/09 11:16:55;;;;;;;2.43;1.63;;;25.60;1.00;;;;;;5132978;27;20440;-66
2022/05/09 11:19:40;;;;;;;3.57;1.60;;;25.70;1.00;;;;;;5131576;27;20459;-64
2022/05/09 11:22:19;;;;;;;1.90;1.33;;;25.90;1.00;;;;;;5125920;27;20462;-63
2022/05/09 11:25:01;;;;;;;2.13;1.57;;;25.60;1.00;;;;;;5116783;27;20462;-66
2022/05/09 11:27:43;;;;;;;2.07;1.80;;;25.50;1.00;;;;;;5118451;27;20497;-66
2022/05/09 11:30:32;;;;;;;1.90;1.63;;;25.30;1.00;;;;;;5118203;27;20743;-66
2022/05/09 11:33:36;;;;;;;2.23;1.63;;;25.20;1.00;;;;;;5131393;27;20519;-65
2022/05/09 11:36:15;;;;;;;1.50;1.20;;;25.20;1.00;;;;;;5133183;28;20902;-66
2022/05/09 11:38:56;;;;;;;2.57;2.37;;;24.80;1.00;;;;;;5124690;27;20544;-65
2022/05/09 11:41:32;;;;;;;6.13;1.60;;;24.60;1.00;;;;;;5111003;28;20471;-64
2022/05/09 11:44:31;;;;;;;1.50;1.10;;;24.70;1.00;;;;;;5110398;28;20432;-67
2022/05/09 11:47:24;;;;;;;1.77;1.50;;;24.30;1.00;;;;;;5115436;28;21076;-65
2022/05/09 11:50:28;;;;;;;1.63;1.53;;;24.10;1.00;;;;;;5130200;28;20748;-68
2022/05/09 11:53:00;;;;;;;1.73;1.60;;;23.70;1.00;;;;;;5111062;28;20475;-65
2022/05/09 11:55:27;;;;;;;1.77;1.67;;;23.60;1.00;;;;;;5122882;28;20900;-64
2022/05/09 11:57:56;;;;;;;1.60;1.13;;;23.60;1.00;;;;;;5131637;28;21136;-66
2022/05/09 12:00:54;;;;;;;2.77;1.20;;;23.60;1.00;;;;;;5133349;28;20443;-65
2022/05/09 12:04:03;;;;;;;1.93;1.20;;;23.70;1.00;;;;;;5133430;28;20431;-67
2022/05/09 12:06:36;;;;;;;1.50;1.20;;;23.40;1.00;;;;;;5133553;27;20464;-69
2022/05/09 12:09:09;;;;;;;1.47;1.10;;;23.40;1.00;;;;;;5135605;28;20448;-69
2022/05/09 12:11:51;;;;;;;1.77;1.30;;;23.90;1.00;;;;;;5134698;28;20456;-66
2022/05/09 12:17:37;;;;;;;1.43;1.20;;;25.50;1.00;;;;;;5089765;28;20438;-65
2022/05/09 12:20:10;;;;;;;1.73;1.07;;;26.00;1.00;;;;;;5135432;28;20451;-67
2022/05/09 12:22:47;;;;;;;1.20;1.10;;;25.80;1.00;;;;;;5120014;28;20911;-68
2022/05/09 12:25:59;;;;;;;1.70;1.50;;;25.80;1.00;;;;;;5124905;28;20455;-68
2022/05/09 12:28:27;;;;;;;1.23;1.10;;;25.60;1.00;;;;;;5121753;28;20577;-69
2022/05/09 12:30:56;;;;;;;5.67;1.10;;;25.20;1.00;;;;;;5136331;28;20558;-69
2022/05/09 12:33:33;;;;;;;1.50;1.33;;;24.80;1.00;;;;;;5134590;28;20476;-68
2022/05/09 12:36:04;;;;;;;1.50;1.37;;;24.40;1.00;;;;;;5134771;28;20457;-70
2022/05/09 12:38:33;;;;;;;1.40;1.30;;;24.20;1.00;;;;;;5135295;28;20874;-69
2022/05/09 12:41:09;;;;;;;1.33;1.20;;;24.40;1.00;;;;;;5135202;28;20513;-69
2022/05/09 12:43:38;;;;;;;1.20;1.10;;;24.90;1.00;;;;;;5133318;28;20438;-67
2022/05/09 12:46:08;;;;;;;1.67;1.23;;;25.20;1.00;;;;;;5133487;28;20477;-70
2022/05/09 12:48:39;;;;;;;1.50;1.20;;;25.30;1.00;;;;;;5133967;28;20443;-69
2022/05/09 12:51:08;;;;;;;1.30;1.20;;;25.50;1.00;;;;;;5134528;27;20500;-68
2022/05/09 12:53:36;;;;;;;1.80;1.20;;;26.00;1.00;;;;;;5136918;27;20479;-68
2022/05/09 12:56:12;;;;;;;1.20;1.00;;;26.10;1.00;;;;;;5137640;27;20498;-69
2022/05/09 12:58:41;;;;;;;1.50;1.40;;;26.30;1.00;;;;;;5135169;27;20459;-67
2022/05/09 13:01:11;;;;;;;2.20;1.57;;;26.60;1.00;;;;;;5136398;27;20538;-68
2022/05/09 13:03:50;;;;;;;1.60;1.20;;;26.80;1.00;;;;;;5137358;27;20443;-68
2022/05/09 13:06:19;;;;;;;10.00;6.33;;;27.00;1.00;;;;;;5135279;27;20483;-68
2022/05/09 13:08:46;;;;;;;2.20;1.40;;;27.40;1.00;;;;;;5130618;27;20899;-67
2022/05/09 13:11:19;;;;;;;3.30;2.17;;;27.50;1.00;;;;;;5126940;27;21049;-68
2022/05/09 13:14:06;;;;;;;1.93;1.20;;;27.80;1.00;;;;;;5134194;27;20579;-68
2022/05/09 13:16:37;;;;;;;1.10;1.00;;;27.70;1.00;;;;;;5135967;27;20460;-68
2022/05/09 13:19:04;;;;;;;1.23;1.10;;;27.90;1.00;;;;;;5136585;27;20444;-68
2022/05/09 13:21:36;;;;;;;3.03;1.20;;;27.20;1.00;;;;;;5132331;27;20785;-67
2022/05/09 13:24:03;;;;;;;1.17;1.00;;;27.30;1.00;;;;;;5135016;27;20452;-66
2022/05/09 13:26:32;;;;;;;2.60;1.20;;;27.10;1.00;;;;;;5133589;27;20455;-67
2022/05/09 13:29:08;;;;;;;1.20;1.10;;;27.50;1.00;;;;;;5135145;27;20932;-68
2022/05/09 13:31:40;;;;;;;1.40;1.00;;;27.90;1.00;;;;;;5131370;27;20456;-67
2022/05/09 13:34:18;;;;;;;2.37;1.10;;;28.10;1.00;;;;;;5135727;27;20475;-68
2022/05/09 13:36:45;;;;;;;1.13;1.00;;;27.70;1.00;;;;;;5134550;27;20460;-67
2022/05/09 13:39:28;;;;;;;1.40;1.07;;;27.60;1.00;;;;;;5128746;27;20483;-67
2022/05/09 13:41:59;;;;;;;1.20;1.10;;;27.70;1.00;;;;;;5137198;27;20534;-67
2022/05/09 13:44:27;;;;;;;1.23;1.07;;;27.70;1.00;;;;;;5131831;27;20456;-65
2022/05/09 13:46:58;;;;;;;2.80;1.10;;;27.50;1.00;;;;;;5134036;27;20747;-66